Time;durP1;ratioP1;P1;durP2;ratioP2;P2;SDS_P1;SDS_P2;PMS_P1;PMS_P2;Temp;Humidity;BMP_temperature;BMP_pressure;BME280_temperature;BME280_humidity;BME280_pressure;Samples;Min_cycle;Max_cycle;Signal;HPM_P1;HPM_P2
2022/08/12 00:43:37;;;;;;;8.93;6.90;;;;;;;;;;5102137;28;20039;-60
2022/08/12 00:48:51;;;;;;;8.40;6.70;;;;;;;;;;5098364;28;20043;-60
2022/08/12 00:51:20;;;;;;;10.57;6.38;;;;;;;;;;5097509;28;20055;-61
2022/08/12 00:53:47;;;;;;;9.38;6.43;;;;;;;;;;5082921;28;20115;-60
2022/08/12 00:56:14;;;;;;;7.90;5.80;;;;;;;;;;5101399;28;20048;-60
2022/08/12 00:58:46;;;;;;;11.40;7.18;;;;;;;;;;5102722;28;20051;-61
2022/08/12 01:01:15;;;;;;;11.10;7.32;;;;;;;;;;5103371;28;20104;-60
2022/08/12 01:12:00;;;;;;;8.60;6.97;;;;;;;;;;5106853;28;20083;-60
2022/08/12 01:14:28;;;;;;;13.32;6.95;;;;;;;;;;5105830;28;20048;-60
2022/08/12 01:16:56;;;;;;;8.35;7.00;;;;;;;;;;5086860;28;20059;-60
2022/08/12 01:19:24;;;;;;;9.23;6.97;;;;;;;;;;5104254;28;20039;-61
2022/08/12 01:22:12;;;;;;;9.23;6.88;;;;;;;;;;5102138;28;20486;-61
2022/08/12 01:25:00;;;;;;;12.13;7.60;;;;;;;;;;5105910;28;20449;-60
2022/08/12 01:27:28;;;;;;;10.35;7.05;;;;;;;;;;5097617;28;20056;-60
2022/08/12 01:29:57;;;;;;;11.80;7.07;;;;;;;;;;5107813;28;20228;-60
2022/08/12 01:32:27;;;;;;;9.75;7.10;;;;;;;;;;5106848;28;20447;-61
2022/08/12 01:34:58;;;;;;;13.20;7.07;;;;;;;;;;5105084;28;20051;-60
2022/08/12 01:37:26;;;;;;;8.77;7.05;;;;;;;;;;5105011;28;20040;-60
2022/08/12 01:39:55;;;;;;;11.13;6.50;;;;;;;;;;5084873;28;20056;-60
2022/08/12 01:42:24;;;;;;;7.88;6.13;;;;;;;;;;5104711;28;20056;-61
2022/08/12 01:44:52;;;;;;;12.85;7.18;;;;;;;;;;5104258;28;20127;-60
2022/08/12 01:47:28;;;;;;;10.73;6.95;;;;;;;;;;5087495;28;20086;-61
2022/08/12 01:50:15;;;;;;;10.50;6.85;;;;;;;;;;5106632;28;20600;-61
2022/08/12 01:52:49;;;;;;;11.93;6.88;;;;;;;;;;5105327;28;20410;-61
2022/08/12 01:55:20;;;;;;;7.95;6.65;;;;;;;;;;5103995;28;20040;-60
2022/08/12 01:57:52;;;;;;;12.73;6.50;;;;;;;;;;5104660;28;20057;-60
2022/08/12 02:00:20;;;;;;;10.48;6.65;;;;;;;;;;5104203;28;20135;-60
2022/08/12 02:02:50;;;;;;;11.88;7.07;;;;;;;;;;5097706;28;20051;-60
2022/08/12 02:11:17;;;;;;;9.55;7.07;;;;;;;;;;5078800;28;20173;-60
2022/08/12 02:13:58;;;;;;;12.93;6.78;;;;;;;;;;5097163;28;20043;-61
2022/08/12 02:16:36;;;;;;;9.27;6.97;;;;;;;;;;5101506;28;20130;-60
2022/08/12 02:19:09;;;;;;;7.47;6.65;;;;;;;;;;5104394;28;20052;-60
2022/08/12 02:21:40;;;;;;;15.27;7.00;;;;;;;;;;5102542;28;20043;-61
2022/08/12 02:24:08;;;;;;;8.82;7.10;;;;;;;;;;5105314;28;20089;-60
2022/08/12 02:26:36;;;;;;;10.90;7.20;;;;;;;;;;5105458;28;20051;-60
2022/08/12 02:29:06;;;;;;;13.20;7.05;;;;;;;;;;5104591;28;20062;-60
2022/08/12 02:31:33;;;;;;;8.50;7.60;;;;;;;;;;5105667;28;20410;-60
2022/08/12 02:34:01;;;;;;;11.95;7.70;;;;;;;;;;5100966;28;20044;-60
2022/08/12 02:36:31;;;;;;;9.38;7.18;;;;;;;;;;5100020;28;20044;-61
2022/08/12 02:38:59;;;;;;;12.05;8.27;;;;;;;;;;5102835;28;20070;-61
2022/08/12 02:41:27;;;;;;;11.20;8.38;;;;;;;;;;5101967;28;20040;-60
2022/08/12 02:43:56;;;;;;;14.32;9.20;;;;;;;;;;5100177;28;20471;-60
2022/08/12 02:46:29;;;;;;;15.25;9.65;;;;;;;;;;5106218;28;20816;-61
2022/08/12 02:48:56;;;;;;;;;;;;;;;;;;5105489;28;20489;-60
2022/08/12 02:51:24;;;;;;;13.98;9.57;;;;;;;;;;5105669;28;19980;-60
2022/08/12 02:53:52;;;;;;;13.75;9.75;;;;;;;;;;5102595;28;20047;-60
2022/08/12 02:56:19;;;;;;;14.63;10.98;;;;;;;;;;5107593;28;20104;-61
2022/08/12 02:58:46;;;;;;;15.88;10.82;;;;;;;;;;5098307;28;20487;-61
2022/08/12 03:01:16;;;;;;;13.75;10.18;;;;;;;;;;5076135;28;20056;-61
2022/08/12 03:03:48;;;;;;;16.05;10.68;;;;;;;;;;5094317;28;20043;-61
2022/08/12 03:06:18;;;;;;;15.23;10.65;;;;;;;;;;5098470;28;20044;-61
2022/08/12 03:08:47;;;;;;;19.40;10.63;;;;;;;;;;5092209;28;20559;-61
2022/08/12 03:11:17;;;;;;;16.38;10.80;;;;;;;;;;5099412;28;20044;-60
2022/08/12 03:13:46;;;;;;;16.20;10.25;;;;;;;;;;5096738;28;20449;-61
2022/08/12 03:16:14;;;;;;;12.25;9.30;;;;;;;;;;5104250;28;20494;-60
2022/08/12 03:18:42;;;;;;;11.02;8.75;;;;;;;;;;5103104;28;20118;-61
2022/08/12 03:21:12;;;;;;;14.32;9.15;;;;;;;;;;5107533;28;20483;-60
2022/08/12 03:23:41;;;;;;;12.95;8.75;;;;;;;;;;5104921;28;20066;-61
2022/08/12 03:26:08;;;;;;;11.52;8.55;;;;;;;;;;5100824;28;20147;-60
2022/08/12 03:28:52;;;;;;;9.73;7.32;;;;;;;;;;5105437;28;20428;-60
2022/08/12 03:31:21;;;;;;;12.85;8.18;;;;;;;;;;5099885;28;20046;-60
2022/08/12 03:33:49;;;;;;;12.38;7.40;;;;;;;;;;5105552;28;20050;-61
2022/08/12 03:36:19;;;;;;;13.57;8.82;;;;;;;;;;5103918;28;20039;-60
2022/08/12 03:38:57;;;;;;;10.40;7.85;;;;;;;;;;5099460;28;20135;-60
2022/08/12 03:41:34;;;;;;;12.93;7.97;;;;;;;;;;5100451;28;20063;-61
2022/08/12 04:00:39;;;;;;;12.70;7.25;;;;;;;;;;5099646;28;20101;-60
2022/08/12 04:03:50;;;;;;;9.75;6.95;;;;;;;;;;5105780;28;20043;-60
2022/08/12 04:05:54;;;;;;;13.00;7.05;;;;;;;;;;5102505;28;20043;-60
2022/08/12 04:08:25;;;;;;;9.98;7.43;;;;;;;;;;5106120;28;20051;-60
2022/08/12 04:13:37;;;;;;;13.98;7.22;;;;;;;;;;5099060;28;20482;-60
2022/08/12 04:16:05;;;;;;;10.18;6.13;;;;;;;;;;5087234;28;20059;-60
2022/08/12 04:18:33;;;;;;;15.20;7.65;;;;;;;;;;5103454;28;20057;-60
2022/08/12 04:21:01;;;;;;;10.57;7.40;;;;;;;;;;5087557;28;20051;-60
2022/08/12 04:23:30;;;;;;;11.45;6.97;;;;;;;;;;5084269;28;20135;-61
2022/08/12 04:25:58;;;;;;;12.10;7.13;;;;;;;;;;5101693;28;20047;-61
2022/08/12 04:28:26;;;;;;;13.45;7.45;;;;;;;;;;5104159;28;20048;-60
2022/08/12 04:30:55;;;;;;;13.95;7.53;;;;;;;;;;5105396;28;20055;-60
2022/08/12 04:33:24;;;;;;;12.60;6.93;;;;;;;;;;5105864;28;20079;-61
2022/08/12 04:35:51;;;;;;;15.02;7.22;;;;;;;;;;5104403;28;20459;-61
2022/08/12 04:38:19;;;;;;;11.27;6.85;;;;;;;;;;5087527;28;20055;-60
2022/08/12 04:40:48;;;;;;;16.77;7.75;;;;;;;;;;5095726;28;20048;-60
2022/08/12 04:43:17;;;;;;;14.45;7.40;;;;;;;;;;5104025;28;20047;-60
2022/08/12 04:45:45;;;;;;;12.43;7.35;;;;;;;;;;5084993;28;20047;-60
2022/08/12 04:48:12;;;;;;;9.93;6.80;;;;;;;;;;5104247;28;20123;-61
2022/08/12 04:50:40;;;;;;;12.05;6.60;;;;;;;;;;5104790;28;20594;-60
2022/08/12 04:53:08;;;;;;;10.23;6.88;;;;;;;;;;5103831;28;20059;-60
2022/08/12 04:55:35;;;;;;;11.95;7.28;;;;;;;;;;5102890;28;20040;-61
2022/08/12 04:58:04;;;;;;;11.32;6.75;;;;;;;;;;5103576;28;20128;-60
2022/08/12 05:00:31;;;;;;;14.05;7.97;;;;;;;;;;5104749;28;20043;-61
2022/08/12 05:02:59;;;;;;;9.77;7.20;;;;;;;;;;5085620;28;20517;-60
2022/08/12 05:05:26;;;;;;;10.55;7.18;;;;;;;;;;5084153;28;20044;-60
2022/08/12 05:07:53;;;;;;;11.43;6.88;;;;;;;;;;5103821;28;20463;-60
2022/08/12 05:10:21;;;;;;;11.40;7.22;;;;;;;;;;5103975;28;20055;-60
2022/08/12 05:12:50;;;;;;;8.23;6.28;;;;;;;;;;5098366;28;20054;-61
2022/08/12 05:15:19;;;;;;;13.20;6.97;;;;;;;;;;5080946;28;20652;-60
2022/08/12 05:17:46;;;;;;;12.27;7.15;;;;;;;;;;5100024;28;20048;-61
2022/08/12 05:20:14;;;;;;;9.27;6.85;;;;;;;;;;5102626;28;20051;-60
2022/08/12 05:22:44;;;;;;;11.82;6.72;;;;;;;;;;5096391;28;20945;-61
2022/08/12 05:25:11;;;;;;;10.75;6.50;;;;;;;;;;5097692;28;20047;-60
2022/08/12 05:27:39;;;;;;;10.35;6.47;;;;;;;;;;5090316;28;20498;-60
2022/08/12 05:30:07;;;;;;;10.05;7.00;;;;;;;;;;5096396;28;20147;-60
2022/08/12 05:32:36;;;;;;;9.05;6.35;;;;;;;;;;5099462;28;20047;-60
2022/08/12 05:35:05;;;;;;;8.13;5.90;;;;;;;;;;5076706;28;20060;-60
2022/08/12 05:37:33;;;;;;;10.40;6.20;;;;;;;;;;5100554;28;20047;-60
2022/08/12 05:40:00;;;;;;;10.18;7.07;;;;;;;;;;5095647;28;20054;-60
2022/08/12 05:42:27;;;;;;;12.15;6.22;;;;;;;;;;5098358;28;20063;-60
2022/08/12 05:44:55;;;;;;;10.90;6.50;;;;;;;;;;5093774;28;20402;-61
2022/08/12 05:47:22;;;;;;;10.05;6.07;;;;;;;;;;5094430;28;20102;-61
2022/08/12 05:49:50;;;;;;;9.57;6.03;;;;;;;;;;5100167;28;20056;-60
2022/08/12 05:52:18;;;;;;;12.48;5.90;;;;;;;;;;5098651;28;20057;-61
2022/08/12 05:54:45;;;;;;;13.13;5.65;;;;;;;;;;5097160;28;20055;-60
2022/08/12 05:57:13;;;;;;;11.02;5.68;;;;;;;;;;5101112;28;20047;-60
2022/08/12 05:59:40;;;;;;;8.40;6.38;;;;;;;;;;5085862;28;20502;-60
2022/08/12 06:02:09;;;;;;;10.90;6.07;;;;;;;;;;5105101;28;20058;-61
2022/08/12 06:04:37;;;;;;;10.77;5.50;;;;;;;;;;5103811;28;20922;-60
2022/08/12 06:07:07;;;;;;;14.05;5.20;;;;;;;;;;5098856;28;20154;-60
2022/08/12 06:09:34;;;;;;;9.32;4.30;;;;;;;;;;5103444;28;20054;-61
2022/08/12 06:12:02;;;;;;;9.48;4.82;;;;;;;;;;5101627;28;20052;-61
2022/08/12 06:14:30;;;;;;;9.43;4.82;;;;;;;;;;5101653;28;20046;-61
2022/08/12 06:16:58;;;;;;;10.13;4.90;;;;;;;;;;5100860;28;20075;-60
2022/08/12 06:19:26;;;;;;;8.27;4.45;;;;;;;;;;5100787;28;20050;-61
2022/08/12 06:21:53;;;;;;;8.43;4.22;;;;;;;;;;5101108;28;20063;-61
2022/08/12 06:24:24;;;;;;;8.20;3.95;;;;;;;;;;5104400;28;20044;-61
2022/08/12 06:26:52;;;;;;;6.97;3.88;;;;;;;;;;5080966;28;20059;-60
2022/08/12 06:29:19;;;;;;;10.43;4.57;;;;;;;;;;5101026;28;20407;-61
2022/08/12 06:31:49;;;;;;;7.20;3.90;;;;;;;;;;5097040;28;20040;-61
2022/08/12 06:34:16;;;;;;;8.95;4.10;;;;;;;;;;5083864;28;20141;-61
2022/08/12 06:36:44;;;;;;;8.57;4.03;;;;;;;;;;5103552;28;20048;-61
2022/08/12 06:39:12;;;;;;;11.35;4.07;;;;;;;;;;5095952;28;20039;-60
2022/08/12 06:44:25;;;;;;;7.15;4.18;;;;;;;;;;5103351;28;20047;-61
2022/08/12 06:46:53;;;;;;;10.52;4.13;;;;;;;;;;5105213;28;20043;-61
2022/08/12 06:49:20;;;;;;;11.60;3.90;;;;;;;;;;5102806;28;20055;-61
2022/08/12 06:51:47;;;;;;;9.27;3.80;;;;;;;;;;5107296;28;20405;-60
2022/08/12 06:54:15;;;;;;;9.13;3.95;;;;;;;;;;5107583;28;20051;-61
2022/08/12 06:56:44;;;;;;;6.93;3.70;;;;;;;;;;5102406;28;20051;-60
2022/08/12 06:59:13;;;;;;;9.27;3.70;;;;;;;;;;5098073;28;20055;-61
2022/08/12 07:01:40;;;;;;;7.05;3.58;;;;;;;;;;5086622;28;20052;-61
2022/08/12 07:04:08;;;;;;;8.02;3.75;;;;;;;;;;5087026;28;20109;-61
2022/08/12 07:06:35;;;;;;;9.57;3.30;;;;;;;;;;5102123;28;20162;-61
2022/08/12 07:09:03;;;;;;;6.95;3.10;;;;;;;;;;5084555;28;20451;-61
2022/08/12 07:11:32;;;;;;;7.80;3.40;;;;;;;;;;5102502;28;20051;-60
2022/08/12 07:14:03;;;;;;;6.97;3.40;;;;;;;;;;5097924;28;20076;-61
2022/08/12 07:16:51;;;;;;;8.82;3.05;;;;;;;;;;5100927;28;20044;-61
2022/08/12 07:19:18;;;;;;;7.65;2.92;;;;;;;;;;5102184;28;20055;-61
2022/08/12 07:21:45;;;;;;;8.43;3.10;;;;;;;;;;5102837;28;20083;-61
2022/08/12 07:24:13;;;;;;;9.65;3.45;;;;;;;;;;5100698;28;20428;-60
2022/08/12 07:26:41;;;;;;;6.75;2.80;;;;;;;;;;5104230;28;20051;-61
2022/08/12 07:29:09;;;;;;;9.10;3.53;;;;;;;;;;5084130;28;20067;-61
2022/08/12 07:31:37;;;;;;;5.25;3.13;;;;;;;;;;5084767;28;20056;-61
2022/08/12 07:34:04;;;;;;;7.80;3.03;;;;;;;;;;5105489;28;20055;-60
2022/08/12 07:36:34;;;;;;;7.00;2.90;;;;;;;;;;5104184;28;20039;-61
2022/08/12 07:39:01;;;;;;;7.40;3.10;;;;;;;;;;5097907;28;20055;-61
2022/08/12 07:41:30;;;;;;;8.60;2.97;;;;;;;;;;5097561;28;20048;-60
2022/08/12 07:43:58;;;;;;;6.90;2.83;;;;;;;;;;5104235;28;20397;-60
2022/08/12 07:46:30;;;;;;;6.80;2.63;;;;;;;;;;5102606;28;20123;-61
2022/08/12 07:48:58;;;;;;;13.40;3.00;;;;;;;;;;5101218;28;20047;-60
2022/08/12 07:51:26;;;;;;;10.23;2.95;;;;;;;;;;5084914;28;20062;-61
2022/08/12 07:53:54;;;;;;;6.10;2.55;;;;;;;;;;5099687;28;20270;-61
2022/08/12 07:56:21;;;;;;;5.65;3.00;;;;;;;;;;5100677;28;20052;-61
2022/08/12 07:58:48;;;;;;;7.10;3.08;;;;;;;;;;5102116;28;20047;-60
2022/08/12 08:01:20;;;;;;;5.07;2.88;;;;;;;;;;5102922;28;20067;-60
2022/08/12 08:06:35;;;;;;;8.20;2.55;;;;;;;;;;5104496;28;20474;-61
2022/08/12 08:09:03;;;;;;;7.82;2.75;;;;;;;;;;5105147;28;20097;-61
2022/08/12 08:14:15;;;;;;;6.18;2.80;;;;;;;;;;5101459;28;20398;-61
2022/08/12 08:16:42;;;;;;;6.32;2.55;;;;;;;;;;5102568;28;20063;-61
2022/08/12 08:19:14;;;;;;;5.38;2.72;;;;;;;;;;5100562;28;20051;-61
2022/08/12 08:21:41;;;;;;;6.32;2.45;;;;;;;;;;5098657;28;20122;-61
2022/08/12 08:24:14;;;;;;;9.50;2.92;;;;;;;;;;5098084;28;20052;-61
2022/08/12 08:26:42;;;;;;;7.13;2.35;;;;;;;;;;5102150;28;21128;-61
2022/08/12 08:29:11;;;;;;;7.55;2.60;;;;;;;;;;5102574;28;20058;-61
2022/08/12 08:31:42;;;;;;;8.57;2.28;;;;;;;;;;5099227;28;20698;-61
2022/08/12 08:34:09;;;;;;;11.23;2.90;;;;;;;;;;5100432;28;20730;-61
2022/08/12 08:36:38;;;;;;;9.82;2.58;;;;;;;;;;5101797;28;20059;-60
2022/08/12 08:39:06;;;;;;;6.55;2.25;;;;;;;;;;5096914;28;20055;-61
2022/08/12 08:44:19;;;;;;;3.53;2.00;;;;;;;;;;5100902;28;20055;-61
2022/08/12 08:46:48;;;;;;;5.15;2.30;;;;;;;;;;5098668;28;20123;-61
2022/08/12 08:49:16;;;;;;;6.38;2.60;;;;;;;;;;5099125;28;20134;-61
2022/08/12 08:51:45;;;;;;;4.20;2.30;;;;;;;;;;5100346;28;20043;-60
2022/08/12 08:54:12;;;;;;;7.05;2.53;;;;;;;;;;5103706;28;20047;-64
2022/08/12 08:56:42;;;;;;;7.82;2.65;;;;;;;;;;5101107;28;20043;-65
2022/08/12 08:59:11;;;;;;;6.68;2.35;;;;;;;;;;5100676;28;20052;-64
2022/08/12 09:01:38;;;;;;;8.40;2.88;;;;;;;;;;5103566;28;20083;-65
2022/08/12 09:04:06;;;;;;;9.93;2.65;;;;;;;;;;5100406;28;20764;-64
2022/08/12 09:06:33;;;;;;;6.32;2.70;;;;;;;;;;5102447;28;20048;-64
2022/08/12 09:09:03;;;;;;;8.20;2.38;;;;;;;;;;5103352;28;20055;-64
2022/08/12 09:14:15;;;;;;;7.60;2.42;;;;;;;;;;5100637;28;20059;-65
2022/08/12 09:16:42;;;;;;;11.13;2.83;;;;;;;;;;5083067;28;20695;-65
2022/08/12 09:19:12;;;;;;;8.05;2.42;;;;;;;;;;5103001;28;20051;-65
2022/08/12 09:21:39;;;;;;;5.70;2.30;;;;;;;;;;5100283;28;20047;-65
2022/08/12 09:24:08;;;;;;;5.18;2.20;;;;;;;;;;5084871;28;20059;-65
2022/08/12 09:26:37;;;;;;;23.85;2.88;;;;;;;;;;5100351;28;20047;-65
2022/08/12 09:29:04;;;;;;;6.18;2.10;;;;;;;;;;5104356;28;20047;-65
2022/08/12 09:31:34;;;;;;;8.38;2.13;;;;;;;;;;5088902;28;20052;-65
2022/08/12 09:34:01;;;;;;;6.05;2.03;;;;;;;;;;5103213;28;20063;-65
2022/08/12 09:36:30;;;;;;;6.45;2.10;;;;;;;;;;5103632;28;20056;-65
2022/08/12 09:39:01;;;;;;;11.05;2.40;;;;;;;;;;5099135;28;20127;-65
2022/08/12 09:41:38;;;;;;;10.80;2.30;;;;;;;;;;5082317;28;20549;-65
2022/08/12 09:46:50;;;;;;;6.90;1.90;;;;;;;;;;5103347;28;20134;-65
2022/08/12 09:49:17;;;;;;;7.57;2.17;;;;;;;;;;5102223;28;20440;-65
2022/08/12 09:51:46;;;;;;;4.65;2.00;;;;;;;;;;5106226;28;20047;-65
2022/08/12 09:54:15;;;;;;;3.30;1.85;;;;;;;;;;5108540;28;20047;-65
2022/08/12 09:56:45;;;;;;;4.57;2.30;;;;;;;;;;5106678;28;20092;-65
2022/08/12 09:59:13;;;;;;;5.90;1.95;;;;;;;;;;5107613;28;20059;-65
2022/08/12 10:01:40;;;;;;;5.65;2.20;;;;;;;;;;5105175;28;20088;-65
2022/08/12 10:04:09;;;;;;;3.65;1.98;;;;;;;;;;5108286;28;20044;-65
2022/08/12 10:06:36;;;;;;;7.25;2.13;;;;;;;;;;5105828;28;20058;-65
2022/08/12 10:09:05;;;;;;;6.30;1.70;;;;;;;;;;5104898;28;20048;-65
2022/08/12 10:14:18;;;;;;;5.60;2.10;;;;;;;;;;5105097;28;20119;-65
2022/08/12 10:16:46;;;;;;;7.07;2.00;;;;;;;;;;5088066;28;20051;-65
2022/08/12 10:19:17;;;;;;;6.00;2.20;;;;;;;;;;5086065;28;20131;-65
2022/08/12 10:21:45;;;;;;;9.05;2.33;;;;;;;;;;5107775;28;20134;-65
2022/08/12 10:24:14;;;;;;;9.80;2.05;;;;;;;;;;5106147;28;20070;-65
2022/08/12 10:29:43;;;;;;;3.35;1.80;;;;;;;;;;5084950;28;20059;-65
2022/08/12 10:32:13;;;;;;;8.73;2.03;;;;;;;;;;5103812;28;20051;-65
2022/08/12 10:34:40;;;;;;;5.38;2.10;;;;;;;;;;5104728;28;20047;-65
2022/08/12 10:37:07;;;;;;;11.13;2.10;;;;;;;;;;5104639;28;20395;-65
2022/08/12 10:39:36;;;;;;;7.70;2.20;;;;;;;;;;5107136;28;20104;-65
2022/08/12 10:44:51;;;;;;;21.60;2.85;;;;;;;;;;5100595;28;20520;-65
2022/08/12 10:47:20;;;;;;;6.20;1.80;;;;;;;;;;5099696;28;20047;-65
2022/08/12 10:49:48;;;;;;;6.22;2.17;;;;;;;;;;5104155;28;20464;-65
2022/08/12 10:52:16;;;;;;;5.47;2.50;;;;;;;;;;5098665;28;20040;-65
2022/08/12 10:54:45;;;;;;;8.20;2.22;;;;;;;;;;5106272;28;20039;-65
2022/08/12 10:57:12;;;;;;;4.15;2.10;;;;;;;;;;5102805;28;20043;-65
2022/08/12 10:59:39;;;;;;;10.27;2.10;;;;;;;;;;5105667;28;20392;-65
2022/08/12 11:02:12;;;;;;;10.55;2.40;;;;;;;;;;5103310;28;20426;-65
2022/08/12 11:04:40;;;;;;;6.88;2.20;;;;;;;;;;5103902;28;20044;-65
2022/08/12 11:07:08;;;;;;;4.40;2.25;;;;;;;;;;5084237;28;20039;-65
2022/08/12 11:09:37;;;;;;;7.78;2.30;;;;;;;;;;5087388;28;20146;-65
2022/08/12 11:12:05;;;;;;;11.02;2.22;;;;;;;;;;5102179;28;20402;-65
2022/08/12 11:14:33;;;;;;;9.77;2.28;;;;;;;;;;5098417;28;20052;-65
2022/08/12 11:17:00;;;;;;;13.20;2.42;;;;;;;;;;5104980;28;20047;-65
2022/08/12 11:19:29;;;;;;;8.30;2.17;;;;;;;;;;5104390;28;20043;-66
2022/08/12 11:21:57;;;;;;;7.38;2.00;;;;;;;;;;5103861;28;21270;-65
2022/08/12 11:24:25;;;;;;;6.50;2.10;;;;;;;;;;5088279;28;20047;-65
2022/08/12 11:26:52;;;;;;;9.13;2.95;;;;;;;;;;5102730;28;20052;-65
2022/08/12 11:29:20;;;;;;;4.68;2.17;;;;;;;;;;5100428;28;20047;-66
2022/08/12 11:31:48;;;;;;;5.65;2.42;;;;;;;;;;5084417;28;20503;-65
2022/08/12 11:34:15;;;;;;;10.27;2.50;;;;;;;;;;5101413;28;20054;-65
2022/08/12 11:36:51;;;;;;;4.35;2.20;;;;;;;;;;5103872;28;20126;-66
2022/08/12 11:39:18;;;;;;;4.47;2.22;;;;;;;;;;5102230;28;20055;-66
2022/08/12 11:41:46;;;;;;;5.20;2.22;;;;;;;;;;5098564;28;20066;-66
2022/08/12 11:44:13;;;;;;;6.88;2.70;;;;;;;;;;5105962;28;20478;-66
2022/08/12 11:46:41;;;;;;;8.68;2.22;;;;;;;;;;5103766;28;20720;-66
2022/08/12 11:49:10;;;;;;;8.07;2.35;;;;;;;;;;5104452;28;20489;-66
2022/08/12 11:51:37;;;;;;;18.02;2.50;;;;;;;;;;5084871;28;20059;-66
2022/08/12 11:54:06;;;;;;;7.43;2.47;;;;;;;;;;5084053;28;20054;-66
2022/08/12 11:56:34;;;;;;;13.43;2.47;;;;;;;;;;5103264;28;20074;-66
2022/08/12 11:59:01;;;;;;;9.25;2.70;;;;;;;;;;5104296;28;20077;-66
2022/08/12 12:01:28;;;;;;;9.98;2.63;;;;;;;;;;5105660;28;20693;-66
2022/08/12 12:03:55;;;;;;;9.88;2.40;;;;;;;;;;5087304;28;20111;-66
2022/08/12 12:06:23;;;;;;;9.63;2.50;;;;;;;;;;5106435;28;20043;-66
2022/08/12 12:08:50;;;;;;;13.68;2.83;;;;;;;;;;5101111;28;20048;-66
2022/08/12 12:11:19;;;;;;;10.73;2.80;;;;;;;;;;5105551;27;20047;-66
2022/08/12 12:13:47;;;;;;;6.88;2.50;;;;;;;;;;5102477;28;20043;-66
2022/08/12 12:16:14;;;;;;;8.05;2.55;;;;;;;;;;5102462;28;20044;-66
2022/08/12 12:18:41;;;;;;;8.02;2.40;;;;;;;;;;5083323;28;20386;-66
2022/08/12 12:21:09;;;;;;;4.05;2.50;;;;;;;;;;5084998;28;20052;-66
2022/08/12 12:23:36;;;;;;;9.63;2.80;;;;;;;;;;5101083;28;20055;-66
2022/08/12 12:26:04;;;;;;;5.05;2.40;;;;;;;;;;5098945;28;20048;-66
2022/08/12 12:28:34;;;;;;;8.35;2.55;;;;;;;;;;5099629;28;20047;-66
2022/08/12 12:31:01;;;;;;;5.45;2.80;;;;;;;;;;5087397;28;20067;-66
2022/08/12 12:33:28;;;;;;;10.15;2.80;;;;;;;;;;5096280;28;20055;-66
2022/08/12 12:35:56;;;;;;;5.80;2.53;;;;;;;;;;5100916;28;20052;-66
2022/08/12 12:38:23;;;;;;;8.57;2.78;;;;;;;;;;5105895;28;20048;-66
2022/08/12 12:40:50;;;;;;;7.10;2.80;;;;;;;;;;5093148;28;20048;-66
2022/08/12 12:43:18;;;;;;;7.38;2.80;;;;;;;;;;5104477;28;20059;-66
2022/08/12 12:45:47;;;;;;;6.47;2.83;;;;;;;;;;5084768;28;20514;-66
2022/08/12 12:48:16;;;;;;;10.50;3.15;;;;;;;;;;5102861;28;20043;-66
2022/08/12 12:50:44;;;;;;;9.63;3.00;;;;;;;;;;5097100;28;20062;-66
2022/08/12 12:53:17;;;;;;;8.23;2.67;;;;;;;;;;5102295;28;20109;-66
2022/08/12 12:55:45;;;;;;;9.77;3.25;;;;;;;;;;5102858;28;20040;-66
2022/08/12 12:58:15;;;;;;;9.48;3.40;;;;;;;;;;5104753;28;20058;-67
2022/08/12 13:00:43;;;;;;;5.93;2.90;;;;;;;;;;5103932;28;20050;-67
2022/08/12 13:03:17;;;;;;;6.13;2.88;;;;;;;;;;5100803;28;20052;-66
2022/08/12 13:05:45;;;;;;;6.88;3.20;;;;;;;;;;5107642;28;20490;-67
2022/08/12 13:08:23;;;;;;;6.85;3.00;;;;;;;;;;5107877;28;20055;-67
2022/08/12 13:10:50;;;;;;;4.95;3.10;;;;;;;;;;5100918;28;20125;-66
2022/08/12 13:13:18;;;;;;;11.45;3.08;;;;;;;;;;5083789;28;20063;-66
2022/08/12 13:15:46;;;;;;;11.43;3.28;;;;;;;;;;5104174;28;20131;-66
2022/08/12 13:18:16;;;;;;;3.45;3.13;;;;;;;;;;5104884;28;20051;-66
2022/08/12 13:20:43;;;;;;;9.38;3.10;;;;;;;;;;5096627;28;20044;-66
2022/08/12 13:23:11;;;;;;;9.38;3.13;;;;;;;;;;5106647;28;20051;-67
2022/08/12 13:25:40;;;;;;;5.32;3.10;;;;;;;;;;5101969;28;20528;-66
2022/08/12 13:28:07;;;;;;;10.93;3.25;;;;;;;;;;5086609;28;20783;-67
2022/08/12 13:30:35;;;;;;;7.88;3.08;;;;;;;;;;5106316;28;20043;-66
2022/08/12 13:33:04;;;;;;;8.27;3.10;;;;;;;;;;5103311;28;20061;-66
2022/08/12 13:35:34;;;;;;;9.25;3.50;;;;;;;;;;5107640;28;20541;-67
2022/08/12 13:38:02;;;;;;;10.93;3.33;;;;;;;;;;5089926;28;20051;-67
2022/08/12 13:40:29;;;;;;;8.25;3.22;;;;;;;;;;5103939;28;20108;-66
2022/08/12 13:42:57;;;;;;;6.45;3.05;;;;;;;;;;5105944;28;20059;-67
2022/08/12 13:45:25;;;;;;;9.60;3.40;;;;;;;;;;5106127;28;20096;-67
2022/08/12 13:47:56;;;;;;;13.25;3.22;;;;;;;;;;5101545;28;20147;-66
2022/08/12 13:50:28;;;;;;;4.75;3.00;;;;;;;;;;5106263;28;20048;-66
2022/08/12 13:52:58;;;;;;;8.57;3.15;;;;;;;;;;5088802;28;20060;-66
2022/08/12 13:55:26;;;;;;;6.30;3.13;;;;;;;;;;5103207;28;20051;-66
2022/08/12 13:57:54;;;;;;;6.15;3.38;;;;;;;;;;5103549;28;21342;-67
2022/08/12 14:00:21;;;;;;;7.30;3.30;;;;;;;;;;5084675;28;20093;-66
2022/08/12 14:02:49;;;;;;;5.22;3.15;;;;;;;;;;5105340;28;20052;-67
2022/08/12 14:05:17;;;;;;;6.72;2.90;;;;;;;;;;5110506;27;20766;-66
2022/08/12 14:07:54;;;;;;;5.15;3.33;;;;;;;;;;5106152;28;20040;-66
2022/08/12 14:10:39;;;;;;;7.38;3.30;;;;;;;;;;5106212;27;20862;-66
2022/08/12 14:13:07;;;;;;;8.93;3.22;;;;;;;;;;5106106;28;20151;-66
2022/08/12 14:15:35;;;;;;;9.82;3.10;;;;;;;;;;5102079;28;20096;-66
2022/08/12 14:18:06;;;;;;;7.90;3.30;;;;;;;;;;5080911;28;20048;-66
2022/08/12 14:20:34;;;;;;;8.80;3.50;;;;;;;;;;5098955;28;20138;-66
2022/08/12 14:23:01;;;;;;;7.97;3.40;;;;;;;;;;5099807;28;20052;-67
2022/08/12 14:25:31;;;;;;;11.93;3.40;;;;;;;;;;5105410;28;20059;-66
2022/08/12 14:28:03;;;;;;;7.55;3.35;;;;;;;;;;5093639;28;20055;-66
2022/08/12 14:30:31;;;;;;;10.13;3.53;;;;;;;;;;5107300;28;20497;-66
2022/08/12 14:33:02;;;;;;;8.90;3.40;;;;;;;;;;5106856;28;20059;-66
2022/08/12 14:35:29;;;;;;;6.93;3.50;;;;;;;;;;5104263;28;20574;-66
2022/08/12 14:37:56;;;;;;;8.18;3.67;;;;;;;;;;5104419;28;20047;-65
2022/08/12 14:40:23;;;;;;;6.78;3.20;;;;;;;;;;5100675;28;20063;-70
2022/08/12 14:42:53;;;;;;;6.13;3.40;;;;;;;;;;5103306;28;20058;-66
2022/08/12 14:45:20;;;;;;;8.05;3.70;;;;;;;;;;5106418;28;20140;-66
2022/08/12 14:47:50;;;;;;;7.55;3.30;;;;;;;;;;5099953;28;20048;-66
2022/08/12 14:50:18;;;;;;;4.80;3.33;;;;;;;;;;5104530;28;20052;-65
2022/08/12 14:52:49;;;;;;;9.32;3.30;;;;;;;;;;5106020;28;20058;-66
2022/08/12 14:55:16;;;;;;;6.30;3.30;;;;;;;;;;5107058;28;20043;-66
2022/08/12 14:57:55;;;;;;;6.65;3.28;;;;;;;;;;5103364;28;20044;-66
2022/08/12 15:03:08;;;;;;;7.75;3.30;;;;;;;;;;5103018;28;20063;-66
2022/08/12 15:05:37;;;;;;;5.45;3.70;;;;;;;;;;5104324;28;20044;-66
2022/08/12 15:08:10;;;;;;;7.43;3.55;;;;;;;;;;5104361;28;20087;-66
2022/08/12 15:10:39;;;;;;;7.28;3.60;;;;;;;;;;5102820;28;20054;-65
2022/08/12 15:13:08;;;;;;;6.63;3.78;;;;;;;;;;5087947;28;20465;-66
2022/08/12 15:15:38;;;;;;;12.13;3.65;;;;;;;;;;5105492;28;20078;-66
2022/08/12 15:18:05;;;;;;;13.65;3.95;;;;;;;;;;5101072;28;20143;-65
2022/08/12 15:20:33;;;;;;;13.30;3.58;;;;;;;;;;5105936;28;20040;-66
2022/08/12 15:23:01;;;;;;;10.52;3.70;;;;;;;;;;5100383;28;20051;-66
2022/08/12 15:25:29;;;;;;;7.80;3.70;;;;;;;;;;5084281;28;20059;-66
2022/08/12 15:27:58;;;;;;;7.53;4.28;;;;;;;;;;5102162;28;20741;-66
2022/08/12 15:30:27;;;;;;;7.50;3.60;;;;;;;;;;5106114;28;20048;-66
2022/08/12 15:32:55;;;;;;;11.18;3.75;;;;;;;;;;5102876;28;20462;-66
2022/08/12 15:35:24;;;;;;;7.45;3.60;;;;;;;;;;5102183;28;20116;-66
2022/08/12 15:37:58;;;;;;;8.27;3.35;;;;;;;;;;5104665;28;20073;-66
2022/08/12 15:40:26;;;;;;;6.15;3.40;;;;;;;;;;5100157;28;20047;-66
2022/08/12 15:42:55;;;;;;;8.20;4.50;;;;;;;;;;5103568;28;21099;-66
2022/08/12 15:45:23;;;;;;;6.53;4.50;;;;;;;;;;5102809;28;20074;-65
2022/08/12 15:47:52;;;;;;;10.05;3.78;;;;;;;;;;5099975;28;20494;-66
2022/08/12 15:50:20;;;;;;;5.10;3.90;;;;;;;;;;5100316;28;20471;-65
2022/08/12 15:52:47;;;;;;;4.75;3.33;;;;;;;;;;5105296;28;20072;-65
2022/08/12 15:55:14;;;;;;;6.30;3.17;;;;;;;;;;5102367;28;20483;-66
2022/08/12 15:57:51;;;;;;;6.38;5.00;;;;;;;;;;5104361;28;20047;-65
2022/08/12 16:00:19;;;;;;;5.82;3.40;;;;;;;;;;5088037;28;20514;-66
2022/08/12 16:02:47;;;;;;;6.40;3.75;;;;;;;;;;5101006;28;20047;-65
2022/08/12 16:05:17;;;;;;;7.65;3.85;;;;;;;;;;5102288;28;20436;-65
2022/08/12 16:07:48;;;;;;;10.43;3.40;;;;;;;;;;5102955;28;20124;-66
2022/08/12 16:10:16;;;;;;;7.82;3.22;;;;;;;;;;5102949;28;20079;-66
2022/08/12 16:12:45;;;;;;;9.73;3.40;;;;;;;;;;5100576;28;20051;-66
2022/08/12 16:15:13;;;;;;;7.30;3.72;;;;;;;;;;5103117;28;20164;-66
2022/08/12 16:17:45;;;;;;;4.18;3.05;;;;;;;;;;5101117;28;20659;-65
2022/08/12 16:20:16;;;;;;;6.05;3.50;;;;;;;;;;5101090;28;20142;-66
2022/08/12 16:22:46;;;;;;;6.07;3.47;;;;;;;;;;5101009;28;20055;-65
2022/08/12 16:25:13;;;;;;;6.75;3.20;;;;;;;;;;5099112;28;20529;-65
2022/08/12 16:27:41;;;;;;;9.68;3.30;;;;;;;;;;5102259;28;20040;-65
2022/08/12 16:30:09;;;;;;;10.10;9.07;;;;;;;;;;5104693;28;20144;-65
2022/08/12 16:32:36;;;;;;;9.23;7.60;;;;;;;;;;5099915;28;20047;-65
2022/08/12 16:35:06;;;;;;;8.45;7.32;;;;;;;;;;5102570;28;20521;-66